Time;durP1;ratioP1;P1;durP2;ratioP2;P2;SDS_P1;SDS_P2;PMS_P1;PMS_P2;Temp;Humidity;BMP_temperature;BMP_pressure;BME280_temperature;BME280_humidity;BME280_pressure;Samples;Min_cycle;Max_cycle;Signal;HPM_P1;HPM_P2
2023/09/19 00:00:35;;;;;;;6.45;2.40;;;17.60;87.00;;;;;;5021741;28;20144;-70
2023/09/19 00:03:04;;;;;;;8.55;2.65;;;17.60;87.00;;;;;;5007839;28;20839;-70
2023/09/19 00:05:35;;;;;;;4.93;2.20;;;17.60;86.80;;;;;;5022459;28;20042;-70
2023/09/19 00:08:04;;;;;;;6.85;2.47;;;17.60;86.70;;;;;;5006052;28;20099;-70
2023/09/19 00:10:39;;;;;;;4.32;2.38;;;17.50;86.80;;;;;;5019907;28;20461;-70
2023/09/19 00:13:06;;;;;;;;;;;17.50;87.00;;;;;;5011002;28;20054;-70
2023/09/19 00:15:40;;;;;;;5.68;2.53;;;17.50;86.90;;;;;;5001333;28;20367;-70
2023/09/19 00:18:08;;;;;;;4.05;2.38;;;17.50;86.70;;;;;;5020362;28;20045;-70
2023/09/19 00:20:37;;;;;;;4.53;2.15;;;17.40;86.50;;;;;;5018352;28;20054;-70
2023/09/19 00:23:04;;;;;;;4.20;1.98;;;17.40;86.30;;;;;;5001153;28;20046;-71
2023/09/19 00:25:35;;;;;;;5.53;2.22;;;17.40;86.40;;;;;;5000424;28;20092;-70
2023/09/19 00:28:03;;;;;;;5.38;2.60;;;17.40;86.50;;;;;;5010524;28;20070;-70
2023/09/19 00:30:30;;;;;;;4.05;1.92;;;17.40;86.40;;;;;;5021148;28;20127;-70
2023/09/19 00:32:57;;;;;;;4.32;2.25;;;17.40;86.10;;;;;;4999743;28;20050;-70
2023/09/19 00:35:24;;;;;;;3.40;1.83;;;17.40;86.30;;;;;;5017772;28;20050;-70
2023/09/19 00:37:52;;;;;;;3.03;1.92;;;17.40;86.40;;;;;;5012571;28;20057;-71
2023/09/19 00:40:21;;;;;;;4.68;2.00;;;17.50;85.40;;;;;;5018837;28;20046;-70
2023/09/19 00:42:49;;;;;;;3.03;1.60;;;17.50;85.20;;;;;;5021150;28;20081;-70
2023/09/19 00:45:17;;;;;;;4.25;1.63;;;17.50;84.90;;;;;;5023428;28;20060;-71
2023/09/19 00:47:51;;;;;;;7.10;1.70;;;17.60;82.80;;;;;;4991948;28;20077;-70
2023/09/19 00:50:21;;;;;;;7.72;1.70;;;17.70;82.60;;;;;;5018039;28;20055;-71
2023/09/19 00:52:53;;;;;;;3.00;1.20;;;17.80;81.80;;;;;;5016884;28;20053;-71
2023/09/19 00:55:20;;;;;;;4.93;1.42;;;17.80;80.50;;;;;;5017283;28;20533;-70
2023/09/19 00:57:49;;;;;;;2.50;1.38;;;17.90;80.70;;;;;;5016198;28;20049;-71
2023/09/19 01:00:19;;;;;;;1.90;1.00;;;17.90;79.90;;;;;;5000277;28;20137;-71
2023/09/19 01:02:47;;;;;;;1.55;1.10;;;17.90;80.10;;;;;;5011961;28;20077;-71
2023/09/19 01:05:14;;;;;;;3.20;1.40;;;17.90;81.00;;;;;;5010778;28;20060;-71
2023/09/19 01:07:41;;;;;;;1.73;0.90;;;17.90;80.30;;;;;;5016729;28;20228;-70
2023/09/19 01:10:44;;;;;;;8.80;1.25;;;17.90;80.20;;;;;;5001114;28;20049;-70
2023/09/19 01:13:23;;;;;;;3.45;1.10;;;17.80;81.30;;;;;;5016278;28;20745;-71
2023/09/19 01:16:18;;;;;;;3.70;1.35;;;17.80;81.10;;;;;;5025696;28;20068;-70
2023/09/19 01:19:06;;;;;;;4.88;1.23;;;17.80;81.10;;;;;;5024153;28;20053;-71
2023/09/19 01:22:10;;;;;;;5.88;1.42;;;17.80;81.10;;;;;;5019690;28;20867;-70
2023/09/19 01:24:56;;;;;;;2.63;0.90;;;17.80;82.00;;;;;;5022998;28;20041;-71
2023/09/19 01:27:32;;;;;;;1.30;0.88;;;17.80;82.50;;;;;;5017487;28;20128;-71
2023/09/19 01:30:13;;;;;;;5.32;1.27;;;17.70;82.20;;;;;;5014264;28;20172;-71
2023/09/19 01:32:41;;;;;;;2.95;1.40;;;17.70;82.30;;;;;;5017607;28;20142;-70
2023/09/19 01:35:12;;;;;;;3.88;1.90;;;17.70;82.70;;;;;;4988519;28;20384;-71
2023/09/19 01:37:39;;;;;;;3.90;1.73;;;17.60;82.80;;;;;;5024515;28;20053;-71
2023/09/19 01:40:14;;;;;;;2.90;1.45;;;17.50;83.20;;;;;;5019062;28;20058;-70
2023/09/19 01:42:46;;;;;;;6.35;1.45;;;17.50;83.20;;;;;;5022400;28;20120;-71
2023/09/19 01:45:27;;;;;;;1.67;1.17;;;17.40;83.50;;;;;;4995544;28;20107;-71
2023/09/19 01:48:21;;;;;;;6.38;1.40;;;17.30;83.90;;;;;;5015291;28;20691;-70
2023/09/19 01:50:59;;;;;;;3.75;1.35;;;17.30;84.50;;;;;;4997604;28;20108;-71
2023/09/19 01:53:33;;;;;;;5.32;1.52;;;17.20;84.70;;;;;;5003089;28;20108;-70
2023/09/19 01:56:02;;;;;;;8.07;1.80;;;17.10;85.20;;;;;;4998669;28;20111;-71
2023/09/19 01:58:45;;;;;;;2.67;1.40;;;17.00;85.60;;;;;;5017950;28;20053;-71
2023/09/19 02:01:20;;;;;;;3.25;1.63;;;17.00;86.00;;;;;;5017257;28;20076;-70
2023/09/19 02:03:49;;;;;;;3.53;1.80;;;16.90;86.00;;;;;;5010527;28;20069;-71
2023/09/19 02:06:18;;;;;;;6.10;1.50;;;16.90;86.30;;;;;;4995208;28;20101;-70
2023/09/19 02:08:47;;;;;;;3.42;1.50;;;16.90;86.40;;;;;;5015912;28;20441;-71
2023/09/19 02:11:14;;;;;;;7.32;1.60;;;16.90;86.70;;;;;;5007376;28;20057;-79
2023/09/19 02:13:42;;;;;;;4.40;1.58;;;16.90;86.80;;;;;;5024899;28;20502;-79
2023/09/19 02:16:10;;;;;;;3.20;1.70;;;16.90;87.00;;;;;;5018025;28;20062;-79
2023/09/19 02:18:39;;;;;;;6.63;1.50;;;16.90;86.90;;;;;;5026974;28;20049;-79
2023/09/19 02:21:12;;;;;;;5.55;1.75;;;16.90;87.30;;;;;;5007915;28;20124;-79
2023/09/19 02:23:39;;;;;;;5.55;2.15;;;16.90;86.90;;;;;;5009020;28;20045;-79
2023/09/19 02:26:07;;;;;;;2.78;1.80;;;16.90;86.70;;;;;;5017919;28;20060;-79
2023/09/19 02:28:35;;;;;;;4.28;1.42;;;16.90;86.80;;;;;;5019295;28;20057;-79
2023/09/19 02:31:05;;;;;;;4.88;2.15;;;16.90;86.80;;;;;;5016589;28;20104;-79
2023/09/19 02:33:32;;;;;;;5.13;1.80;;;16.90;87.00;;;;;;5003356;28;20081;-79
2023/09/19 02:36:00;;;;;;;5.85;1.90;;;16.90;87.40;;;;;;4998927;28;20057;-79
2023/09/19 02:38:28;;;;;;;3.63;1.50;;;16.80;87.50;;;;;;5013452;28;20516;-79
2023/09/19 02:40:56;;;;;;;3.92;1.73;;;16.80;87.70;;;;;;5007211;28;20068;-79
2023/09/19 02:43:23;;;;;;;4.63;1.60;;;16.70;87.70;;;;;;5005633;28;20072;-79
2023/09/19 02:45:53;;;;;;;4.78;1.83;;;16.70;88.10;;;;;;5048239;23;20076;-70
2023/09/19 02:48:20;;;;;;;10.82;1.90;;;16.60;88.10;;;;;;5040068;28;20045;-71
2023/09/19 02:50:49;;;;;;;4.63;1.73;;;16.60;88.30;;;;;;5042318;28;20049;-70
2023/09/19 02:53:16;;;;;;;5.07;1.77;;;16.60;88.50;;;;;;5043468;28;20098;-70
2023/09/19 02:55:43;;;;;;;5.80;1.80;;;16.60;88.40;;;;;;5044417;28;20088;-71
2023/09/19 02:58:11;;;;;;;3.13;1.67;;;16.70;88.40;;;;;;5025783;28;20064;-71
2023/09/19 03:00:38;;;;;;;3.80;1.73;;;16.70;88.70;;;;;;5039353;28;20055;-70
2023/09/19 03:03:06;;;;;;;3.28;1.80;;;16.70;88.60;;;;;;5042331;28;20124;-71
2023/09/19 03:05:33;;;;;;;7.78;1.70;;;16.60;88.50;;;;;;5043315;28;20053;-71
2023/09/19 03:08:00;;;;;;;4.88;1.80;;;16.60;88.70;;;;;;5042277;28;20715;-71
2023/09/19 03:10:29;;;;;;;4.28;1.33;;;16.60;88.80;;;;;;5040772;28;20045;-71
2023/09/19 03:12:59;;;;;;;6.38;2.10;;;16.60;88.80;;;;;;5021655;28;21924;-71
2023/09/19 03:15:26;;;;;;;4.70;1.75;;;16.60;89.00;;;;;;5023675;28;20581;-71
2023/09/19 03:17:53;;;;;;;4.22;1.70;;;16.50;89.00;;;;;;5040369;28;20049;-71
2023/09/19 03:20:21;;;;;;;4.45;2.03;;;16.50;89.20;;;;;;5040098;28;20041;-70
2023/09/19 03:22:48;;;;;;;2.35;1.80;;;16.50;89.10;;;;;;5038120;28;20707;-71
2023/09/19 03:25:17;;;;;;;4.35;1.77;;;16.40;89.50;;;;;;5040901;28;20478;-71
2023/09/19 03:27:44;;;;;;;5.18;2.00;;;16.40;89.50;;;;;;5021987;28;20051;-71
2023/09/19 03:30:13;;;;;;;2.63;1.55;;;16.30;89.80;;;;;;5020587;28;20071;-71
2023/09/19 03:32:49;;;;;;;5.40;2.00;;;16.20;89.90;;;;;;5036603;28;20513;-71
2023/09/19 03:35:18;;;;;;;6.13;2.30;;;16.20;90.10;;;;;;5021846;28;20052;-71
2023/09/19 03:37:45;;;;;;;7.88;2.10;;;16.10;90.60;;;;;;5017577;28;20064;-71
2023/09/19 03:40:12;;;;;;;5.38;2.40;;;16.10;90.60;;;;;;5016560;28;20045;-70
2023/09/19 03:42:42;;;;;;;7.68;2.35;;;16.00;90.80;;;;;;5020471;28;20138;-71
2023/09/19 03:45:13;;;;;;;6.85;2.30;;;16.00;91.30;;;;;;5019178;28;20130;-70
2023/09/19 03:47:40;;;;;;;5.80;2.55;;;16.00;91.30;;;;;;5033397;28;20049;-71
2023/09/19 03:50:10;;;;;;;9.55;2.50;;;15.90;91.60;;;;;;5022719;28;20140;-70
2023/09/19 03:52:37;;;;;;;5.28;3.00;;;15.90;91.60;;;;;;5018752;28;20143;-71
2023/09/19 03:55:05;;;;;;;13.20;2.53;;;15.90;91.80;;;;;;5018151;28;20059;-70
2023/09/19 03:57:32;;;;;;;5.18;2.50;;;15.90;91.80;;;;;;5043383;28;20159;-71
2023/09/19 03:59:59;;;;;;;9.07;2.58;;;16.00;91.70;;;;;;5024201;28;20689;-71
2023/09/19 04:02:32;;;;;;;7.38;2.95;;;16.00;91.30;;;;;;5034553;28;20156;-70
2023/09/19 04:04:59;;;;;;;12.55;3.63;;;16.00;91.00;;;;;;5020343;28;20405;-71
2023/09/19 04:07:28;;;;;;;8.77;2.90;;;16.10;90.40;;;;;;5039902;28;20069;-70
2023/09/19 04:09:56;;;;;;;8.38;3.15;;;16.10;90.10;;;;;;5020347;28;20107;-70
2023/09/19 04:12:22;;;;;;;9.30;3.45;;;16.10;89.10;;;;;;5035963;28;20460;-70
2023/09/19 04:14:50;;;;;;;8.50;3.22;;;16.10;89.30;;;;;;5018509;28;20052;-71
2023/09/19 04:17:18;;;;;;;10.15;3.17;;;16.10;89.30;;;;;;5019538;28;20060;-71
2023/09/19 04:19:45;;;;;;;6.97;2.90;;;16.10;89.20;;;;;;5022570;28;20044;-70
2023/09/19 04:22:12;;;;;;;9.43;3.20;;;16.20;89.20;;;;;;5038575;28;20048;-71
2023/09/19 04:24:40;;;;;;;5.45;3.30;;;16.20;89.50;;;;;;5038614;28;20548;-71
2023/09/19 04:27:07;;;;;;;8.38;3.15;;;16.20;88.60;;;;;;5037420;28;20379;-71
2023/09/19 04:29:34;;;;;;;7.68;3.03;;;16.20;88.50;;;;;;5037074;28;20068;-71
2023/09/19 04:32:05;;;;;;;18.63;3.20;;;16.20;89.00;;;;;;5038303;28;20053;-71
2023/09/19 04:34:34;;;;;;;10.02;2.50;;;16.20;88.30;;;;;;5024298;28;20052;-70
2023/09/19 04:37:02;;;;;;;7.55;3.25;;;16.10;88.30;;;;;;5039603;28;20053;-71
2023/09/19 04:39:28;;;;;;;6.45;3.40;;;16.10;88.00;;;;;;5014397;28;20050;-70
2023/09/19 04:41:56;;;;;;;11.07;3.50;;;16.00;88.00;;;;;;5032650;28;20052;-71
2023/09/19 04:44:23;;;;;;;10.75;3.25;;;16.00;88.20;;;;;;5037326;28;20077;-71
2023/09/19 04:46:50;;;;;;;9.43;3.15;;;15.90;88.50;;;;;;5021323;28;20119;-71
2023/09/19 04:49:18;;;;;;;5.20;2.92;;;15.80;88.80;;;;;;5039309;28;20037;-71
2023/09/19 04:51:47;;;;;;;8.43;3.63;;;15.80;88.50;;;;;;5023449;28;20138;-70
2023/09/19 04:54:15;;;;;;;12.23;3.72;;;15.80;89.00;;;;;;5032098;28;20045;-70
2023/09/19 04:56:42;;;;;;;14.23;3.22;;;15.70;89.40;;;;;;5039705;28;20111;-71
2023/09/19 04:59:10;;;;;;;7.82;3.30;;;15.70;89.30;;;;;;5043355;28;20109;-71
2023/09/19 05:01:37;;;;;;;5.18;2.88;;;15.60;89.20;;;;;;5025806;28;20041;-71
2023/09/19 05:04:05;;;;;;;11.05;3.20;;;15.60;89.60;;;;;;5039878;28;20041;-73
2023/09/19 05:06:33;;;;;;;13.23;3.30;;;15.60;89.70;;;;;;5036191;28;20049;-70
2023/09/19 05:09:00;;;;;;;13.88;3.42;;;15.60;89.60;;;;;;5014904;28;20060;-70
2023/09/19 05:11:27;;;;;;;9.80;3.15;;;15.60;89.80;;;;;;5046221;28;20045;-70
2023/09/19 05:13:54;;;;;;;8.90;3.38;;;15.60;90.20;;;;;;5043935;28;20052;-70
2023/09/19 05:16:21;;;;;;;5.68;2.70;;;15.50;90.10;;;;;;5026609;28;20151;-70
2023/09/19 05:18:49;;;;;;;9.68;3.22;;;15.50;90.50;;;;;;5036125;28;20091;-74
2023/09/19 05:21:17;;;;;;;7.68;3.05;;;15.50;90.70;;;;;;5026045;28;20045;-72
2023/09/19 05:23:44;;;;;;;10.73;3.03;;;15.50;90.90;;;;;;5041316;28;20045;-71
2023/09/19 05:26:12;;;;;;;12.45;3.40;;;15.50;90.90;;;;;;5042502;28;20133;-71
2023/09/19 05:28:39;;;;;;;18.92;4.25;;;15.60;91.20;;;;;;5036042;28;20122;-71
2023/09/19 05:31:06;;;;;;;9.15;3.30;;;15.60;91.00;;;;;;5040283;28;20050;-71
2023/09/19 05:33:33;;;;;;;654.70;60.08;;;15.60;90.90;;;;;;5018896;28;20084;-70
2023/09/19 05:36:00;;;;;;;569.70;61.03;;;15.60;91.00;;;;;;5043913;28;20048;-71
2023/09/19 05:38:27;;;;;;;14.55;4.78;;;15.60;91.00;;;;;;5041582;28;20080;-70
2023/09/19 05:40:54;;;;;;;7.18;2.97;;;15.60;90.50;;;;;;5017117;28;20073;-70
2023/09/19 05:43:22;;;;;;;9.07;3.05;;;15.70;90.70;;;;;;5032823;28;20534;-70
2023/09/19 05:45:51;;;;;;;9.27;3.00;;;15.60;90.90;;;;;;5046419;28;20048;-70
2023/09/19 05:48:20;;;;;;;85.90;10.38;;;15.70;90.70;;;;;;5037968;28;20049;-70
2023/09/19 05:50:48;;;;;;;6.43;2.85;;;15.70;91.20;;;;;;5017364;28;20400;-70
2023/09/19 05:53:16;;;;;;;9.25;3.53;;;15.70;90.90;;;;;;5042564;28;20084;-70
2023/09/19 05:55:43;;;;;;;10.10;3.20;;;15.80;90.70;;;;;;5041805;28;20084;-70
2023/09/19 05:58:10;;;;;;;13.50;3.10;;;15.90;89.60;;;;;;5034399;28;20045;-71
2023/09/19 06:00:37;;;;;;;62.50;6.15;;;16.00;89.40;;;;;;5040366;28;20106;-70
2023/09/19 06:03:06;;;;;;;13.55;3.53;;;16.10;89.50;;;;;;5024329;28;20740;-70
2023/09/19 06:05:33;;;;;;;16.05;3.28;;;16.20;89.20;;;;;;5043828;28;20453;-70
2023/09/19 06:08:00;;;;;;;8.18;2.83;;;16.20;89.40;;;;;;5022948;28;20694;-71
2023/09/19 06:10:29;;;;;;;5.97;2.60;;;16.30;89.10;;;;;;5037017;28;20045;-70
2023/09/19 06:12:57;;;;;;;4.80;2.53;;;16.50;88.50;;;;;;5024944;28;20053;-70
2023/09/19 06:15:25;;;;;;;8.60;2.28;;;16.60;86.40;;;;;;5043637;28;20120;-70
2023/09/19 06:17:55;;;;;;;7.47;2.15;;;16.60;85.30;;;;;;5023353;28;20053;-71
2023/09/19 06:20:23;;;;;;;8.43;2.38;;;16.60;84.30;;;;;;5038634;28;20669;-70
2023/09/19 06:22:51;;;;;;;15.20;2.88;;;16.80;83.30;;;;;;5021455;28;20205;-70
2023/09/19 06:25:19;;;;;;;7.28;1.80;;;16.90;80.90;;;;;;5041946;28;20044;-72
2023/09/19 06:27:54;;;;;;;5.53;1.67;;;16.70;77.10;;;;;;5036299;28;20055;-72
2023/09/19 06:30:25;;;;;;;14.07;1.60;;;16.60;75.40;;;;;;5036356;28;20053;-73
2023/09/19 06:32:57;;;;;;;7.65;1.88;;;16.50;75.60;;;;;;5040439;28;20142;-74
2023/09/19 06:35:26;;;;;;;9.10;1.40;;;16.40;73.90;;;;;;5040146;28;20057;-70
2023/09/19 06:37:53;;;;;;;5.07;1.63;;;16.20;71.90;;;;;;5041161;28;20058;-71
2023/09/19 06:40:20;;;;;;;13.02;1.70;;;16.20;75.40;;;;;;5037663;28;20049;-70
2023/09/19 06:42:51;;;;;;;12.52;1.92;;;16.30;74.70;;;;;;5032712;28;20537;-71
2023/09/19 06:45:18;;;;;;;11.50;1.75;;;16.20;75.00;;;;;;5030469;28;20052;-71
2023/09/19 06:47:49;;;;;;;14.75;1.73;;;16.20;74.00;;;;;;5047312;28;20040;-70
2023/09/19 06:50:19;;;;;;;8.68;1.75;;;16.30;75.90;;;;;;5037384;28;20052;-71
2023/09/19 06:52:50;;;;;;;6.97;1.42;;;16.40;74.80;;;;;;5037868;28;20049;-71
2023/09/19 06:55:21;;;;;;;6.47;1.48;;;16.70;75.60;;;;;;5041167;28;20060;-70
2023/09/19 06:57:48;;;;;;;11.25;1.85;;;16.90;74.10;;;;;;5035161;28;20126;-70
2023/09/19 07:00:21;;;;;;;7.15;1.80;;;17.00;71.70;;;;;;5042620;28;20048;-70
2023/09/19 07:03:07;;;;;;;9.55;1.65;;;17.20;72.70;;;;;;5021951;28;20064;-70
2023/09/19 07:05:38;;;;;;;10.35;1.48;;;17.30;70.70;;;;;;5023352;28;20060;-69
2023/09/19 07:08:09;;;;;;;13.23;1.70;;;17.50;70.30;;;;;;5024413;28;20096;-69
2023/09/19 07:10:36;;;;;;;8.68;1.83;;;17.70;68.80;;;;;;5041071;28;20150;-69
2023/09/19 07:13:08;;;;;;;16.40;3.45;;;17.90;69.40;;;;;;5025164;28;20373;-70
2023/09/19 07:15:38;;;;;;;8.40;1.65;;;17.90;69.20;;;;;;5041891;28;20164;-70
2023/09/19 07:18:06;;;;;;;6.32;1.48;;;18.00;68.30;;;;;;5034029;28;20428;-69
2023/09/19 07:20:34;;;;;;;9.52;1.52;;;18.30;68.70;;;;;;5039264;28;20424;-70
2023/09/19 07:23:01;;;;;;;17.63;1.30;;;18.40;67.10;;;;;;5036542;28;20049;-70
2023/09/19 07:25:29;;;;;;;9.35;1.75;;;18.40;69.00;;;;;;5039523;28;20049;-71
2023/09/19 07:27:59;;;;;;;16.95;1.77;;;18.60;69.70;;;;;;5040709;28;20073;-71
2023/09/19 07:30:27;;;;;;;17.13;1.73;;;18.60;67.40;;;;;;5043683;28;20053;-77
2023/09/19 07:32:54;;;;;;;8.40;1.23;;;18.80;67.00;;;;;;5037492;28;20059;-78
2023/09/19 07:35:22;;;;;;;8.48;1.00;;;18.90;65.20;;;;;;5039833;28;20055;-78
2023/09/19 07:37:49;;;;;;;5.55;1.38;;;19.00;67.00;;;;;;5040640;28;20055;-78
2023/09/19 07:40:18;;;;;;;3.13;1.10;;;19.20;65.60;;;;;;5020960;28;20054;-78
2023/09/19 07:42:46;;;;;;;6.85;1.25;;;19.40;64.60;;;;;;5018669;28;20056;-78
2023/09/19 07:45:14;;;;;;;6.20;1.50;;;19.60;66.10;;;;;;5017252;28;20049;-78
2023/09/19 07:47:48;;;;;;;11.43;1.60;;;20.10;67.20;;;;;;5036863;28;20549;-78
2023/09/19 07:50:19;;;;;;;10.88;1.65;;;20.10;61.80;;;;;;5041305;28;20052;-78
2023/09/19 07:52:50;;;;;;;13.50;1.90;;;19.80;63.90;;;;;;5041539;28;20677;-78
2023/09/19 07:55:19;;;;;;;39.63;3.67;;;20.20;63.00;;;;;;5042834;28;20051;-79
2023/09/19 07:57:47;;;;;;;186.23;17.95;;;20.60;61.60;;;;;;5041825;28;20088;-77
2023/09/19 08:00:14;;;;;;;10.00;2.03;;;20.90;59.10;;;;;;5024236;28;20126;-78
2023/09/19 08:02:42;;;;;;;20.13;1.75;;;20.90;61.50;;;;;;5025861;28;20536;-78
2023/09/19 08:05:11;;;;;;;12.20;1.50;;;20.70;60.80;;;;;;5023514;28;20505;-78
2023/09/19 08:07:39;;;;;;;15.23;1.90;;;20.50;60.60;;;;;;5041189;28;20049;-76
2023/09/19 08:10:12;;;;;;;8.23;1.83;;;20.30;60.60;;;;;;5039942;28;20080;-77
2023/09/19 08:12:46;;;;;;;9.90;1.35;;;20.30;63.10;;;;;;5043317;28;20608;-77
2023/09/19 08:15:20;;;;;;;6.22;1.73;;;20.40;61.70;;;;;;5050413;23;20688;-77
2023/09/19 08:17:48;;;;;;;11.50;2.08;;;20.40;60.30;;;;;;5025163;28;20098;-79
2023/09/19 08:20:17;;;;;;;8.65;1.58;;;20.30;63.60;;;;;;5027809;28;20048;-78
2023/09/19 08:22:48;;;;;;;11.52;1.80;;;20.30;62.00;;;;;;5027913;28;20053;-79
2023/09/19 08:25:18;;;;;;;7.80;1.58;;;20.10;62.60;;;;;;5043353;28;20849;-78
2023/09/19 08:27:48;;;;;;;68.28;7.30;;;20.50;61.60;;;;;;5051758;28;20049;-79
2023/09/19 08:30:23;;;;;;;20.92;3.15;;;20.40;60.10;;;;;;5017905;28;20131;-79
2023/09/19 08:35:19;;;;;;;9.55;1.67;;;20.00;63.50;;;;;;4930563;29;20052;-78
2023/09/19 08:37:46;;;;;;;930.45;95.68;;;20.30;61.50;;;;;;4931112;29;20989;-77
2023/09/19 08:40:13;;;;;;;17.00;5.30;;;20.50;62.00;;;;;;4932397;29;20500;-78
2023/09/19 08:42:51;;;;;;;10.73;1.85;;;20.50;61.40;;;;;;4938561;29;20051;-78
2023/09/19 08:45:18;;;;;;;10.63;1.70;;;20.70;60.90;;;;;;4937008;29;20556;-77
2023/09/19 08:47:50;;;;;;;10.65;2.03;;;20.70;60.00;;;;;;4961776;28;20172;-77
2023/09/19 08:50:30;;;;;;;6.65;1.65;;;20.60;60.90;;;;;;4931809;29;20055;-79
2023/09/19 08:53:01;;;;;;;5.85;1.75;;;20.60;59.40;;;;;;4938356;29;20071;-80
2023/09/19 08:55:29;;;;;;;9.40;1.55;;;20.30;61.90;;;;;;4928908;29;20106;-80
2023/09/19 08:58:10;;;;;;;9.25;1.85;;;20.00;62.10;;;;;;4934930;29;20051;-79
2023/09/19 09:00:42;;;;;;;14.57;1.92;;;20.00;61.90;;;;;;4938840;29;20107;-79
2023/09/19 09:03:11;;;;;;;10.98;1.73;;;19.80;63.10;;;;;;4936225;29;20442;-79
2023/09/19 09:05:43;;;;;;;12.30;1.92;;;19.80;62.10;;;;;;4941084;28;20059;-79
2023/09/19 09:08:11;;;;;;;7.80;2.10;;;19.90;64.10;;;;;;4953874;28;20148;-79
2023/09/19 09:10:40;;;;;;;12.10;2.38;;;19.80;63.00;;;;;;4942256;29;20690;-79
2023/09/19 09:13:09;;;;;;;9.93;2.08;;;19.80;63.70;;;;;;4934744;29;20055;-79
2023/09/19 09:15:37;;;;;;;9.65;1.95;;;19.50;62.70;;;;;;4939674;29;20059;-79
2023/09/19 09:18:04;;;;;;;9.80;2.25;;;19.40;64.80;;;;;;4934210;29;20481;-79
2023/09/19 09:20:31;;;;;;;10.98;2.10;;;19.10;64.20;;;;;;4927901;29;20052;-79
2023/09/19 09:23:00;;;;;;;11.15;2.33;;;19.00;65.30;;;;;;4926033;29;20433;-80
2023/09/19 09:25:54;;;;;;;14.85;2.10;;;19.10;67.60;;;;;;4928666;29;20126;-80
2023/09/19 09:28:24;;;;;;;13.23;1.60;;;19.30;66.70;;;;;;4929537;29;20048;-71
2023/09/19 09:30:51;;;;;;;13.60;2.33;;;19.70;66.40;;;;;;4927951;29;20056;-72
2023/09/19 09:33:18;;;;;;;9.50;1.92;;;19.90;65.60;;;;;;4923136;29;20058;-71
2023/09/19 09:35:52;;;;;;;12.68;2.00;;;20.00;66.40;;;;;;4926812;29;20424;-72
2023/09/19 09:38:43;;;;;;;14.23;2.85;;;19.90;64.30;;;;;;4923375;29;20055;-71
2023/09/19 09:41:15;;;;;;;13.65;2.40;;;20.30;65.40;;;;;;4926503;29;20043;-78
2023/09/19 09:43:44;;;;;;;7.25;2.15;;;20.10;63.30;;;;;;4949197;28;20436;-78
2023/09/19 09:52:31;;;;;;;12.05;2.35;;;19.90;64.70;;;;;;4999534;28;20057;-72
2023/09/19 09:54:41;;;;;;;9.27;2.40;;;19.80;64.20;;;;;;4997684;28;20152;-71
2023/09/19 10:00:20;;;;;;;14.68;2.40;;;19.80;63.90;;;;;;5002470;28;20079;-81
2023/09/19 10:02:47;;;;;;;10.05;2.35;;;19.50;61.10;;;;;;4981133;28;20483;-81
2023/09/19 10:07:53;;;;;;;10.05;1.95;;;19.20;63.80;;;;;;5009304;28;20046;-80
2023/09/19 10:13:21;;;;;;;9.95;1.98;;;19.10;63.90;;;;;;4994945;28;20542;-80
2023/09/19 10:15:50;;;;;;;18.77;3.15;;;19.20;64.50;;;;;;5000868;28;20050;-78
2023/09/19 10:18:26;;;;;;;13.07;2.33;;;19.40;64.60;;;;;;5007790;28;20045;-80
2023/09/19 10:20:54;;;;;;;7.95;2.10;;;19.30;66.10;;;;;;5003473;28;20046;-79
2023/09/19 10:23:23;;;;;;;10.48;2.30;;;19.40;62.90;;;;;;4987561;28;20879;-79
2023/09/19 10:25:51;;;;;;;7.78;2.20;;;19.50;62.50;;;;;;5003233;28;20706;-81
2023/09/19 10:28:21;;;;;;;7.18;2.22;;;19.40;62.90;;;;;;5006104;28;20524;-78
2023/09/19 10:30:51;;;;;;;13.57;2.00;;;19.40;63.50;;;;;;4982666;28;20104;-79
2023/09/19 10:33:20;;;;;;;12.48;2.20;;;19.30;63.50;;;;;;5008266;28;20042;-78
2023/09/19 10:35:51;;;;;;;7.38;1.90;;;19.30;62.60;;;;;;5003139;28;20054;-78
2023/09/19 10:38:21;;;;;;;16.20;2.30;;;19.40;62.00;;;;;;5001285;28;20509;-78
2023/09/19 10:40:59;;;;;;;7.90;1.88;;;19.50;62.70;;;;;;5003602;28;20045;-78
2023/09/19 10:43:32;;;;;;;6.88;2.35;;;19.80;61.40;;;;;;5004071;28;20048;-78
2023/09/19 10:46:10;;;;;;;9.83;2.27;;;20.00;62.70;;;;;;5005192;28;20041;-78
2023/09/19 10:48:39;;;;;;;7.82;1.90;;;20.30;60.30;;;;;;4997448;28;20050;-78
2023/09/19 10:51:15;;;;;;;9.10;1.80;;;20.20;60.30;;;;;;4981984;28;20054;-78
2023/09/19 10:53:48;;;;;;;;;;;20.00;60.60;;;;;;4985619;28;20057;-78
2023/09/19 10:56:27;;;;;;;6.90;2.22;;;20.20;61.00;;;;;;4997582;28;20034;-78
2023/09/19 10:59:18;;;;;;;14.23;1.83;;;20.20;61.40;;;;;;5003512;28;20050;-78
2023/09/19 11:01:51;;;;;;;12.02;2.00;;;20.40;60.80;;;;;;5002504;28;20049;-78
2023/09/19 11:04:35;;;;;;;11.15;1.92;;;20.50;59.90;;;;;;5004142;28;20052;-78
2023/09/19 11:07:12;;;;;;;4.57;2.15;;;20.70;59.70;;;;;;5001812;28;20185;-78
2023/09/19 11:09:53;;;;;;;7.28;1.80;;;20.90;60.30;;;;;;4997591;28;20046;-78
2023/09/19 11:12:30;;;;;;;9.35;2.03;;;21.20;56.40;;;;;;4979354;28;20052;-79
2023/09/19 11:14:58;;;;;;;15.13;2.25;;;21.00;56.90;;;;;;5002377;28;20144;-78
2023/09/19 11:17:41;;;;;;;8.60;1.55;;;20.90;59.20;;;;;;4983828;28;20054;-78
2023/09/19 11:22:59;;;;;;;19.73;2.13;;;21.10;55.60;;;;;;4998687;28;20165;-78
2023/09/19 11:25:34;;;;;;;13.95;1.88;;;20.90;58.80;;;;;;4998632;28;20633;-79
2023/09/19 11:28:08;;;;;;;;;;;21.20;58.60;;;;;;5002897;28;20133;-78
2023/09/19 11:30:37;;;;;;;14.75;2.15;;;21.50;57.40;;;;;;4984072;28;20177;-79
2023/09/19 11:33:46;;;;;;;8.25;2.17;;;21.30;57.20;;;;;;5003734;28;20077;-78
2023/09/19 11:36:19;;;;;;;7.97;1.40;;;21.30;55.10;;;;;;4990391;28;20049;-79
2023/09/19 11:38:47;;;;;;;12.00;1.88;;;21.30;56.40;;;;;;5005946;28;20053;-79
2023/09/19 11:41:20;;;;;;;9.10;1.90;;;21.30;58.30;;;;;;4997468;28;20060;-78
2023/09/19 11:44:10;;;;;;;14.27;1.80;;;21.00;54.50;;;;;;4985000;28;20509;-79
2023/09/19 11:46:54;;;;;;;9.07;1.58;;;20.90;56.00;;;;;;5005708;28;20128;-79
2023/09/19 11:49:29;;;;;;;15.77;2.42;;;20.70;56.50;;;;;;5002657;28;20056;-79
2023/09/19 11:52:00;;;;;;;14.68;2.08;;;21.20;58.90;;;;;;5003098;28;21032;-79
2023/09/19 11:54:31;;;;;;;44.78;2.75;;;21.80;59.70;;;;;;5003374;28;20127;-78
2023/09/19 11:57:00;;;;;;;10.98;1.88;;;22.30;55.10;;;;;;5002989;28;20054;-78
2023/09/19 11:59:29;;;;;;;15.30;2.38;;;22.70;55.30;;;;;;5006542;28;20068;-79
2023/09/19 12:01:59;;;;;;;10.57;1.92;;;23.00;52.80;;;;;;4999362;28;20054;-80
2023/09/19 12:04:53;;;;;;;7.05;1.52;;;22.90;53.30;;;;;;5001309;28;20160;-80
2023/09/19 12:07:21;;;;;;;30.15;3.33;;;22.90;54.90;;;;;;4991708;28;20042;-80
2023/09/19 12:09:50;;;;;;;80.70;6.20;;;23.10;54.90;;;;;;4996483;28;20050;-80
2023/09/19 12:12:26;;;;;;;9.07;2.30;;;23.30;54.10;;;;;;4983336;28;20136;-80
2023/09/19 12:14:57;;;;;;;126.68;8.82;;;23.20;52.40;;;;;;4999674;28;20060;-79
2023/09/19 12:17:35;;;;;;;7.85;1.95;;;23.10;52.90;;;;;;5010527;28;20054;-78
2023/09/19 12:20:16;;;;;;;10.85;1.35;;;22.80;51.70;;;;;;4978854;28;20149;-78
2023/09/19 12:22:46;;;;;;;7.38;1.70;;;22.20;52.90;;;;;;4978230;28;20061;-78
2023/09/19 12:25:16;;;;;;;11.77;2.22;;;21.50;55.00;;;;;;4978284;28;20132;-78
2023/09/19 12:27:43;;;;;;;172.90;11.00;;;21.20;56.70;;;;;;4997713;28;20045;-78
2023/09/19 12:30:14;;;;;;;7.30;1.92;;;21.20;57.30;;;;;;5002167;28;20042;-78
2023/09/19 12:32:55;;;;;;;15.25;1.60;;;21.50;56.70;;;;;;5000893;28;20057;-78
2023/09/19 12:35:30;;;;;;;17.65;1.85;;;21.60;56.20;;;;;;4998206;28;20068;-78
2023/09/19 12:37:58;;;;;;;8.37;1.97;;;21.60;55.60;;;;;;4978729;28;20058;-78
2023/09/19 12:40:27;;;;;;;18.42;2.05;;;21.40;55.30;;;;;;4980665;28;20088;-79
2023/09/19 12:42:58;;;;;;;11.75;2.33;;;21.30;57.80;;;;;;4999000;28;20046;-78
2023/09/19 12:45:26;;;;;;;28.20;1.88;;;21.50;56.80;;;;;;4987815;28;20081;-80
2023/09/19 12:48:34;;;;;;;14.60;1.70;;;21.50;56.90;;;;;;5003717;28;20508;-71
2023/09/19 12:51:16;;;;;;;11.45;1.90;;;21.30;55.10;;;;;;4998190;28;20057;-71
2023/09/19 12:53:46;;;;;;;21.17;2.58;;;21.10;56.00;;;;;;4996647;28;20050;-71
2023/09/19 12:56:15;;;;;;;4.90;1.80;;;20.90;57.50;;;;;;4999197;28;20385;-71
2023/09/19 12:58:55;;;;;;;5.20;1.40;;;20.90;56.70;;;;;;4996810;28;20446;-71
2023/09/19 13:01:29;;;;;;;16.02;2.03;;;21.10;57.10;;;;;;4986431;28;20042;-71
2023/09/19 13:04:20;;;;;;;6.40;1.67;;;21.20;56.60;;;;;;5000732;28;20131;-71
2023/09/19 13:06:51;;;;;;;7.80;1.70;;;21.10;57.50;;;;;;5000256;28;20049;-71
2023/09/19 13:09:20;;;;;;;8.65;1.60;;;21.10;57.00;;;;;;4996452;28;20553;-71
2023/09/19 13:11:49;;;;;;;4.07;1.55;;;21.10;57.90;;;;;;5002004;28;20474;-71
2023/09/19 13:14:20;;;;;;;8.40;1.73;;;21.00;56.50;;;;;;5000348;28;20125;-71
2023/09/19 13:17:14;;;;;;;769.47;92.35;;;20.70;56.90;;;;;;5002189;28;20165;-71
2023/09/19 13:19:56;;;;;;;13.30;3.17;;;20.90;56.60;;;;;;5001623;28;20081;-71
2023/09/19 13:22:45;;;;;;;27.48;4.78;;;21.00;57.00;;;;;;4989543;28;20056;-71